Time;durP1;ratioP1;P1;durP2;ratioP2;P2;SDS_P1;SDS_P2;PMS_P1;PMS_P2;Temp;Humidity;BMP_temperature;BMP_pressure;BME280_temperature;BME280_humidity;BME280_pressure;Samples;Min_cycle;Max_cycle;Signal;HPM_P1;HPM_P2
2021/07/16 00:00:52;;;;;;;3.08;1.83;;;;;;;18.07;73.96;96659.84;5065287;28;20060;-79
2021/07/16 00:03:19;;;;;;;1.88;1.65;;;;;;;18.03;74.37;96663.97;5063021;28;20108;-82
2021/07/16 00:05:47;;;;;;;2.45;1.95;;;;;;;17.99;74.02;96665.47;5061058;28;20064;-78
2021/07/16 00:08:14;;;;;;;2.20;2.00;;;;;;;17.94;74.91;96667.97;5060441;28;20433;-80
2021/07/16 00:10:43;;;;;;;3.70;1.90;;;;;;;17.94;74.83;96672.47;5061019;28;20064;-80
2021/07/16 00:13:12;;;;;;;3.38;1.90;;;;;;;17.94;75.75;96667.97;5060363;28;20059;-83
2021/07/16 00:15:40;;;;;;;2.10;1.90;;;;;;;17.94;75.36;96665.34;5062517;28;20076;-79
2021/07/16 00:18:07;;;;;;;3.08;2.00;;;;;;;17.97;75.71;96672.00;5061499;28;20049;-77
2021/07/16 00:20:35;;;;;;;3.13;1.80;;;;;;;17.97;75.75;96672.00;5060223;28;20048;-78
2021/07/16 00:23:03;;;;;;;2.72;2.17;;;;;;;17.94;74.89;96675.09;5059956;28;20045;-79
2021/07/16 00:25:30;;;;;;;2.15;1.88;;;;;;;17.91;75.31;96677.16;5060527;28;20503;-78
2021/07/16 00:27:57;;;;;;;2.42;1.52;;;;;;;17.89;75.77;96676.59;5060121;28;20056;-79
2021/07/16 00:30:26;;;;;;;2.60;2.38;;;;;;;17.90;76.24;96672.91;5059110;28;20572;-79
2021/07/16 00:32:54;;;;;;;2.97;2.13;;;;;;;17.90;76.09;96677.38;5063620;28;20053;-77
2021/07/16 00:35:21;;;;;;;2.10;1.90;;;;;;;17.91;76.36;96684.28;5063443;28;20053;-78
2021/07/16 00:37:49;;;;;;;2.80;1.80;;;;;;;17.94;76.40;96688.28;5063429;28;20045;-78
2021/07/16 00:40:17;;;;;;;2.42;2.22;;;;;;;17.96;76.08;96679.13;5064014;28;20048;-78
2021/07/16 00:42:45;;;;;;;1.80;1.70;;;;;;;17.97;75.93;96683.34;5064512;28;20499;-78
2021/07/16 00:45:14;;;;;;;2.20;1.90;;;;;;;18.00;75.67;96677.63;5063680;28;20052;-78
2021/07/16 00:47:45;;;;;;;2.25;1.92;;;;;;;18.01;75.36;96679.22;5064412;28;20564;-77
2021/07/16 00:50:15;;;;;;;2.10;2.00;;;;;;;18.02;75.66;96682.69;5064398;28;20060;-79
2021/07/16 00:52:44;;;;;;;2.70;1.88;;;;;;;18.01;75.60;96681.88;5063045;28;20049;-78
2021/07/16 00:55:13;;;;;;;2.40;1.70;;;;;;;17.98;75.32;96684.19;5064025;28;20056;-78
2021/07/16 00:57:41;;;;;;;2.05;1.88;;;;;;;17.95;75.53;96674.88;5063403;28;20049;-78
2021/07/16 01:00:11;;;;;;;5.47;2.40;;;;;;;17.89;74.47;96686.34;5063904;28;20053;-78
2021/07/16 01:02:39;;;;;;;2.35;2.00;;;;;;;17.86;74.76;96681.50;5063062;28;20049;-78
2021/07/16 01:05:10;;;;;;;2.40;1.95;;;;;;;17.82;76.37;96681.16;5063635;28;20090;-80
2021/07/16 01:07:38;;;;;;;2.50;2.15;;;;;;;17.86;76.46;96681.50;5062912;28;20048;-77
2021/07/16 01:10:08;;;;;;;2.92;2.67;;;;;;;17.88;76.41;96682.06;5063630;28;20315;-80
2021/07/16 01:12:37;;;;;;;2.83;2.58;;;;;;;17.87;76.48;96683.91;5063412;28;20052;-78
2021/07/16 01:15:06;;;;;;;2.95;2.65;;;;;;;17.89;76.21;96688.97;5065895;28;20052;-79
2021/07/16 01:17:34;;;;;;;5.82;3.00;;;;;;;17.90;75.61;96687.94;5065899;28;20120;-78
2021/07/16 01:20:06;;;;;;;3.40;3.10;;;;;;;17.86;75.97;96686.78;5064477;28;20056;-78
2021/07/16 01:22:37;;;;;;;5.90;4.03;;;;;;;17.86;76.34;96681.50;5063608;28;20045;-78
2021/07/16 01:25:09;;;;;;;4.78;3.25;;;;;;;17.89;76.31;96681.84;5063623;28;20049;-80
2021/07/16 01:27:37;;;;;;;3.70;2.90;;;;;;;17.91;76.33;96679.00;5063729;28;20064;-78
2021/07/16 01:30:07;;;;;;;3.90;3.60;;;;;;;17.92;74.94;96683.25;5063237;28;20049;-78
2021/07/16 01:32:36;;;;;;;2.88;2.60;;;;;;;17.90;75.61;96688.72;5063338;28;20052;-79
2021/07/16 01:35:05;;;;;;;3.78;2.85;;;;;;;17.88;75.21;96688.16;5062910;28;20048;-78
2021/07/16 01:37:35;;;;;;;2.60;2.30;;;;;;;17.89;75.57;96688.97;5063639;28;20053;-78
2021/07/16 01:40:05;;;;;;;5.28;3.55;;;;;;;17.90;75.52;96687.94;5062822;28;20049;-78
2021/07/16 01:42:38;;;;;;;4.97;4.57;;;;;;;17.92;76.00;96683.25;5062140;28;20052;-78
2021/07/16 01:45:08;;;;;;;6.20;5.70;;;;;;;17.91;75.24;96684.28;5062305;28;20049;-78
2021/07/16 01:47:35;;;;;;;8.23;6.80;;;;;;;17.89;75.53;96681.06;5062601;28;20052;-77
2021/07/16 01:50:03;;;;;;;7.03;6.32;;;;;;;17.89;75.45;96687.13;5063056;28;20061;-78
2021/07/16 01:52:32;;;;;;;6.38;5.72;;;;;;;17.87;75.78;96688.41;5061812;28;20052;-78
2021/07/16 01:54:59;;;;;;;7.20;6.47;;;;;;;17.84;75.63;96691.47;5062130;28;20149;-80
2021/07/16 01:57:27;;;;;;;7.38;6.25;;;;;;;17.81;75.97;96681.34;5062550;28;20045;-78
2021/07/16 01:59:56;;;;;;;8.75;6.93;;;;;;;17.80;76.21;96688.47;5061866;28;20083;-78
2021/07/16 02:02:23;;;;;;;9.07;7.20;;;;;;;17.82;76.39;96688.25;5061700;28;20049;-77
2021/07/16 02:04:51;;;;;;;12.95;9.18;;;;;;;17.81;75.52;96686.63;5062076;28;20053;-78
2021/07/16 02:07:19;;;;;;;9.90;7.32;;;;;;;17.79;75.79;96688.69;5062425;28;20048;-78
2021/07/16 02:09:46;;;;;;;8.50;6.97;;;;;;;17.80;76.27;96695.56;5062228;28;20048;-78
2021/07/16 02:12:14;;;;;;;8.80;7.90;;;;;;;17.76;75.59;96697.06;5061705;28;20049;-78
2021/07/16 02:14:41;;;;;;;20.65;7.53;;;;;;;17.72;75.99;96694.06;5061807;28;20053;-78
2021/07/16 02:17:10;;;;;;;8.32;7.07;;;;;;;17.70;76.41;96691.63;5061746;28;20049;-78
2021/07/16 02:19:37;;;;;;;10.95;8.20;;;;;;;17.68;76.47;96685.78;5062486;28;20088;-77
2021/07/16 02:22:06;;;;;;;8.05;7.25;;;;;;;17.69;76.92;96691.88;5061849;28;20048;-78
2021/07/16 02:24:34;;;;;;;8.55;6.95;;;;;;;17.69;77.15;96695.31;5061823;28;20063;-78
2021/07/16 02:27:04;;;;;;;9.77;8.10;;;;;;;17.68;76.91;96693.69;5061503;28;20056;-78
2021/07/16 02:29:34;;;;;;;8.40;6.97;;;;;;;17.67;77.07;96693.94;5062067;28;20423;-78
2021/07/16 02:32:01;;;;;;;7.88;7.13;;;;;;;17.67;77.21;96701.84;5062531;28;20048;-80
2021/07/16 02:34:30;;;;;;;8.20;7.35;;;;;;;17.68;77.63;96696.31;5061187;28;20052;-81
2021/07/16 02:36:58;;;;;;;9.05;7.43;;;;;;;17.67;76.93;96696.56;5061572;28;20049;-78
2021/07/16 02:39:26;;;;;;;6.45;5.85;;;;;;;17.66;77.49;96694.94;5061388;28;20136;-78
2021/07/16 02:41:53;;;;;;;10.00;7.00;;;;;;;17.67;77.09;96699.22;5060312;28;20053;-77
2021/07/16 02:44:21;;;;;;;9.80;7.93;;;;;;;17.67;76.96;96696.56;5060794;28;20063;-78
2021/07/16 02:46:49;;;;;;;9.23;7.28;;;;;;;17.67;77.40;96700.00;5061002;28;20049;-78
2021/07/16 02:49:16;;;;;;;9.82;7.72;;;;;;;17.67;77.13;96705.28;5060301;28;20052;-78
2021/07/16 02:51:45;;;;;;;8.00;6.68;;;;;;;17.67;77.50;96700.00;5060117;28;20068;-78
2021/07/16 02:54:13;;;;;;;7.82;6.60;;;;;;;17.68;77.25;96701.59;5059385;28;20049;-78
2021/07/16 02:56:40;;;;;;;7.63;6.63;;;;;;;17.67;76.90;96705.28;5059626;28;20056;-79
2021/07/16 02:59:08;;;;;;;11.00;6.90;;;;;;;17.64;77.34;96700.44;5058885;28;20049;-79
2021/07/16 03:01:54;;;;;;;7.93;6.10;;;;;;;17.65;77.79;96704.69;5058454;28;20044;-80
2021/07/16 03:04:23;;;;;;;8.88;6.47;;;;;;;17.65;77.21;96712.63;5060748;28;20045;-79
2021/07/16 03:06:52;;;;;;;10.73;7.72;;;;;;;17.62;76.62;96706.97;5061090;28;20063;-79
2021/07/16 03:09:19;;;;;;;8.35;6.65;;;;;;;17.57;77.48;96712.13;5060733;28;20045;-79
2021/07/16 03:11:47;;;;;;;7.13;6.43;;;;;;;17.58;77.45;96708.44;5061068;28;20049;-78
2021/07/16 03:14:14;;;;;;;9.13;7.40;;;;;;;17.58;77.26;96713.72;5063357;28;20052;-79
2021/07/16 03:16:42;;;;;;;7.70;6.88;;;;;;;17.57;77.45;96715.56;5061789;28;20060;-78
2021/07/16 03:19:10;;;;;;;8.10;6.80;;;;;;;17.60;77.42;96722.22;5059292;28;20048;-80
2021/07/16 03:21:37;;;;;;;6.85;6.25;;;;;;;17.63;77.29;96722.59;5060928;28;20045;-78
2021/07/16 03:24:06;;;;;;;7.15;6.45;;;;;;;17.65;77.21;96715.25;5061070;28;20052;-78
2021/07/16 03:26:36;;;;;;;7.93;6.57;;;;;;;17.66;77.14;96708.94;5060768;28;20049;-80
2021/07/16 03:29:04;;;;;;;7.93;6.60;;;;;;;17.68;76.93;96712.16;5062023;28;20053;-79
2021/07/16 03:31:32;;;;;;;7.72;6.93;;;;;;;17.68;76.85;96722.72;5061975;28;20045;-80
2021/07/16 03:34:00;;;;;;;7.75;6.68;;;;;;;17.69;76.56;96718.25;5059978;28;20057;-78
2021/07/16 03:36:27;;;;;;;11.60;5.85;;;;;;;17.68;76.83;96719.28;5061856;28;20048;-78
2021/07/16 03:38:55;;;;;;;7.80;6.22;;;;;;;17.66;77.00;96723.97;5062446;28;20048;-79
2021/07/16 03:41:24;;;;;;;9.25;7.07;;;;;;;17.61;76.49;96729.91;5062242;28;20055;-79
2021/07/16 03:43:52;;;;;;;11.38;7.10;;;;;;;17.58;76.40;96734.81;5061839;28;20502;-79
2021/07/16 03:46:19;;;;;;;8.88;6.22;;;;;;;17.55;76.35;96733.44;5062529;28;20052;-80
2021/07/16 03:48:47;;;;;;;8.50;7.38;;;;;;;17.52;76.28;96733.88;5061684;28;20151;-78
2021/07/16 03:51:14;;;;;;;9.93;7.70;;;;;;;17.45;76.23;96739.25;5061523;28;20049;-78
2021/07/16 03:53:42;;;;;;;8.45;6.55;;;;;;;17.44;77.26;96736.81;5062676;28;20048;-79
2021/07/16 03:56:09;;;;;;;7.40;6.70;;;;;;;17.42;76.98;96741.50;5059929;28;20053;-78
2021/07/16 03:58:38;;;;;;;9.55;6.85;;;;;;;17.40;77.13;96740.94;5059840;28;20513;-79
2021/07/16 04:01:06;;;;;;;12.93;7.95;;;;;;;17.38;76.97;96735.06;5060431;28;20525;-78
2021/07/16 04:03:33;;;;;;;16.63;8.25;;;;;;;17.37;77.13;96747.44;5060291;28;20052;-78
2021/07/16 04:06:01;;;;;;;8.15;7.35;;;;;;;17.38;76.95;96748.25;5063556;28;20049;-79
2021/07/16 04:08:29;;;;;;;7.90;6.95;;;;;;;17.37;77.31;96752.72;5067499;28;20056;-80
2021/07/16 04:10:56;;;;;;;8.55;7.45;;;;;;;17.38;77.57;96753.53;5067477;28;20059;-80
2021/07/16 04:13:24;;;;;;;14.02;9.00;;;;;;;17.38;77.03;96756.16;5065095;28;20048;-78
2021/07/16 04:15:53;;;;;;;7.75;6.82;;;;;;;17.38;77.96;96758.81;5064555;28;20108;-77
2021/07/16 04:18:20;;;;;;;7.63;6.70;;;;;;;17.38;78.24;96762.25;5064996;28;20056;-77
2021/07/16 04:20:48;;;;;;;8.10;6.57;;;;;;;17.42;78.66;96759.97;5065338;28;20433;-79
2021/07/16 04:23:17;;;;;;;9.20;7.32;;;;;;;17.42;78.34;96760.78;5064167;28;20162;-78
2021/07/16 04:25:45;;;;;;;7.93;7.13;;;;;;;17.43;78.66;96753.69;5065058;28;20494;-76
2021/07/16 04:28:12;;;;;;;7.68;6.53;;;;;;;17.46;78.54;96755.88;5064783;28;20507;-79
2021/07/16 04:30:40;;;;;;;8.95;6.88;;;;;;;17.49;78.24;96760.69;5064096;28;20049;-82
2021/07/16 04:33:09;;;;;;;8.50;7.63;;;;;;;17.45;77.92;96764.81;5064259;28;20041;-78
2021/07/16 04:35:37;;;;;;;6.63;5.63;;;;;;;17.42;78.58;96759.97;5064649;28;20056;-79
2021/07/16 04:38:04;;;;;;;7.53;5.80;;;;;;;17.44;78.82;96779.03;5064437;28;20422;-78
2021/07/16 04:40:34;;;;;;;7.78;6.53;;;;;;;17.46;78.76;96771.69;5064679;28;20059;-79
2021/07/16 04:43:02;;;;;;;9.90;7.07;;;;;;;17.47;79.05;96776.75;5064362;28;20053;-78
2021/07/16 04:45:31;;;;;;;8.73;7.88;;;;;;;17.46;77.76;96769.06;5064652;28;20044;-78
2021/07/16 04:47:59;;;;;;;6.53;6.00;;;;;;;17.48;78.55;96777.56;5065429;28;20049;-78
2021/07/16 04:50:28;;;;;;;8.73;6.57;;;;;;;17.53;78.80;96771.63;5064361;28;20056;-78
2021/07/16 04:52:55;;;;;;;8.55;7.75;;;;;;;17.53;77.80;96772.41;5063978;28;20053;-79
2021/07/16 04:55:24;;;;;;;6.68;6.07;;;;;;;17.53;78.29;96766.34;5063014;28;20053;-78
2021/07/16 04:57:52;;;;;;;7.63;6.05;;;;;;;17.54;78.32;96758.22;5064567;28;20110;-79
2021/07/16 05:00:20;;;;;;;7.65;6.68;;;;;;;17.57;78.57;96762.22;5064539;28;20045;-79
2021/07/16 05:02:48;;;;;;;9.25;6.47;;;;;;;17.61;78.50;96769.47;5064314;28;20069;-78
2021/07/16 05:05:17;;;;;;;8.93;7.10;;;;;;;17.61;77.54;96774.75;5065638;28;20421;-78
2021/07/16 05:07:46;;;;;;;7.90;7.10;;;;;;;17.56;77.30;96772.00;5064530;28;20049;-78
2021/07/16 05:10:13;;;;;;;9.38;7.22;;;;;;;17.53;76.66;96775.06;5064532;28;20049;-79
2021/07/16 05:12:41;;;;;;;8.57;7.57;;;;;;;17.50;77.01;96783.41;5063981;28;20258;-80
2021/07/16 05:15:11;;;;;;;8.55;6.70;;;;;;;17.46;76.99;96776.97;5063086;28;20486;-78
2021/07/16 05:17:39;;;;;;;9.43;7.75;;;;;;;17.42;76.70;96767.88;5062504;28;20077;-78
2021/07/16 05:20:08;;;;;;;9.35;6.00;;;;;;;17.40;77.65;96770.72;5062526;28;20049;-81
2021/07/16 05:22:35;;;;;;;10.05;8.15;;;;;;;17.42;77.66;96770.53;5064442;28;20068;-80
2021/07/16 05:25:06;;;;;;;12.27;8.07;;;;;;;17.39;77.33;96771.78;5065245;28;20144;-78
2021/07/16 05:27:34;;;;;;;7.70;6.57;;;;;;;17.39;78.06;96776.25;5065784;28;20049;-80
2021/07/16 05:30:01;;;;;;;9.60;7.20;;;;;;;17.43;78.78;96775.59;5064052;28;20049;-78
2021/07/16 05:32:29;;;;;;;9.93;8.10;;;;;;;17.44;78.28;96773.75;5063195;28;20057;-78
2021/07/16 05:34:56;;;;;;;9.27;7.18;;;;;;;17.47;79.00;96776.75;5064437;28;20056;-79
2021/07/16 05:37:24;;;;;;;9.30;7.43;;;;;;;17.53;79.12;96779.53;5061533;28;20056;-79
2021/07/16 05:39:51;;;;;;;9.30;7.90;;;;;;;17.52;77.85;96791.91;5064703;28;20049;-78
2021/07/16 05:42:20;;;;;;;8.80;7.32;;;;;;;17.50;77.84;96797.41;5064357;28;20064;-81
2021/07/16 05:44:48;;;;;;;8.75;7.38;;;;;;;17.50;77.62;96799.25;5064442;28;20056;-78
2021/07/16 05:47:15;;;;;;;8.68;6.95;;;;;;;17.52;78.23;96806.94;5064445;28;20049;-78
2021/07/16 05:49:43;;;;;;;8.32;6.78;;;;;;;17.56;78.26;96802.81;5064165;28;20418;-78
2021/07/16 05:52:11;;;;;;;7.15;6.45;;;;;;;17.60;78.56;96801.34;5063988;28;20055;-78
2021/07/16 05:54:38;;;;;;;10.23;8.43;;;;;;;17.59;77.49;96805.03;5064292;28;20434;-78
2021/07/16 05:57:06;;;;;;;10.00;8.02;;;;;;;17.58;77.75;96808.66;5065294;28;20048;-80
2021/07/16 05:59:35;;;;;;;8.55;7.63;;;;;;;17.60;78.12;96815.38;5104263;22;20036;-78
2021/07/16 06:02:04;;;;;;;9.77;6.85;;;;;;;17.62;77.95;96818.59;5116923;28;20060;-78
2021/07/16 06:04:33;;;;;;;9.70;7.65;;;;;;;17.63;77.73;96825.47;5114789;28;20028;-77
2021/07/16 06:07:02;;;;;;;8.18;6.78;;;;;;;17.62;77.76;96831.78;5110526;28;20051;-76
2021/07/16 06:09:29;;;;;;;7.85;7.05;;;;;;;17.62;78.20;96823.88;5107978;28;20043;-75
2021/07/16 06:11:57;;;;;;;8.23;6.63;;;;;;;17.67;78.58;96829.28;5092262;28;20063;-74
2021/07/16 06:14:25;;;;;;;9.77;7.78;;;;;;;17.67;77.45;96820.56;5090697;28;20078;-76
2021/07/16 06:16:54;;;;;;;9.35;7.57;;;;;;;17.67;78.21;96825.84;5091779;28;20136;-78
2021/07/16 06:19:23;;;;;;;7.70;6.97;;;;;;;17.66;78.02;96824.22;5089450;28;20048;-77
2021/07/16 06:21:51;;;;;;;12.77;7.85;;;;;;;17.66;77.85;96830.28;5090692;28;20044;-77
2021/07/16 06:24:19;;;;;;;7.22;6.53;;;;;;;17.68;78.91;96830.88;5090683;28;20097;-75
2021/07/16 06:26:46;;;;;;;8.15;7.30;;;;;;;17.72;78.39;96828.59;5089608;28;20052;-78
2021/07/16 06:29:14;;;;;;;8.48;7.60;;;;;;;17.73;77.90;96832.84;5082594;28;20120;-78
2021/07/16 06:31:41;;;;;;;11.73;9.50;;;;;;;17.71;77.67;96838.34;5079967;28;20082;-77
2021/07/16 06:34:12;;;;;;;12.50;7.82;;;;;;;17.73;77.95;96832.03;5077842;28;20044;-78
2021/07/16 06:36:40;;;;;;;9.77;7.63;;;;;;;17.78;77.72;96832.19;5077494;28;20562;-77
2021/07/16 06:39:10;;;;;;;7.70;7.00;;;;;;;17.82;77.94;96828.09;5076722;28;20052;-77
2021/07/16 06:41:37;;;;;;;9.00;6.57;;;;;;;17.88;78.20;96830.66;5083862;28;20060;-77
2021/07/16 06:44:06;;;;;;;8.70;7.28;;;;;;;17.89;76.99;96827.00;5076842;28;20052;-78
2021/07/16 06:46:34;;;;;;;8.68;6.80;;;;;;;17.87;76.86;96836.19;5077499;28;20049;-77
2021/07/16 06:49:01;;;;;;;7.80;7.00;;;;;;;17.88;76.91;96841.22;5078301;28;20053;-78
2021/07/16 06:51:33;;;;;;;8.00;7.20;;;;;;;17.91;77.20;96842.63;5075000;28;20051;-78
2021/07/16 06:54:01;;;;;;;9.02;7.13;;;;;;;17.95;77.65;96843.78;5072628;28;20045;-78
2021/07/16 06:56:29;;;;;;;7.85;6.68;;;;;;;17.99;77.72;96833.56;5072999;28;20044;-77
2021/07/16 06:58:56;;;;;;;7.07;6.38;;;;;;;18.03;77.79;96835.53;5074257;28;20056;-78
2021/07/16 07:01:24;;;;;;;7.95;5.22;;;;;;;18.06;77.38;96837.75;5074264;28;20055;-77
2021/07/16 07:03:52;;;;;;;8.73;7.43;;;;;;;18.10;76.87;96848.66;5074704;28;20049;-78
2021/07/16 07:06:20;;;;;;;8.15;6.53;;;;;;;18.11;76.72;96856.34;5074813;28;20052;-78
2021/07/16 07:08:48;;;;;;;8.25;7.45;;;;;;;18.11;76.80;96853.72;5073742;28;20425;-78
2021/07/16 07:11:16;;;;;;;8.80;7.60;;;;;;;18.15;76.86;96855.91;5074250;28;20536;-78
2021/07/16 07:13:44;;;;;;;6.55;5.93;;;;;;;18.19;77.52;96851.78;5073974;28;20421;-78
2021/07/16 07:16:15;;;;;;;7.60;6.45;;;;;;;18.24;77.23;96858.03;5072782;28;20101;-78
2021/07/16 07:18:43;;;;;;;6.28;5.68;;;;;;;18.30;77.27;96851.03;5075809;28;20108;-72
2021/07/16 07:21:11;;;;;;;7.70;7.00;;;;;;;18.38;77.63;96853.34;5071895;28;20048;-74
2021/07/16 07:23:38;;;;;;;6.35;5.80;;;;;;;18.46;77.28;96855.69;5071715;28;20425;-74
2021/07/16 07:26:07;;;;;;;6.35;5.75;;;;;;;18.53;76.97;96866.16;5072152;28;20048;-74
2021/07/16 07:28:35;;;;;;;6.60;5.70;;;;;;;18.58;76.62;96862.84;5071892;28;20502;-73
2021/07/16 07:31:03;;;;;;;5.55;5.05;;;;;;;18.63;76.22;96865.59;5087774;28;20048;-73
2021/07/16 07:33:31;;;;;;;5.53;5.03;;;;;;;18.66;76.25;96860.66;5086764;28;20422;-74
2021/07/16 07:35:58;;;;;;;7.30;5.57;;;;;;;18.70;76.31;96867.13;5085691;28;20052;-74
2021/07/16 07:38:26;;;;;;;5.63;5.13;;;;;;;18.71;76.01;96874.00;5074615;28;20051;-73
2021/07/16 07:40:54;;;;;;;7.80;5.45;;;;;;;18.73;74.67;96877.22;5071222;28;20052;-73
2021/07/16 07:43:23;;;;;;;5.18;4.78;;;;;;;18.77;75.79;96874.13;5071701;28;20048;-73
2021/07/16 07:45:50;;;;;;;3.92;3.63;;;;;;;18.79;75.14;96872.91;5071605;28;20046;-73
2021/07/16 07:48:18;;;;;;;4.13;3.83;;;;;;;18.85;75.73;96874.66;5071691;28;20055;-73
2021/07/16 07:50:45;;;;;;;5.05;4.55;;;;;;;18.86;74.42;96870.97;5071576;28;20064;-73
2021/07/16 07:53:13;;;;;;;6.35;3.90;;;;;;;18.88;73.88;96874.19;5073411;28;20048;-79
2021/07/16 08:14:43;;;;;;;5.68;4.68;;;;;;;19.21;72.88;96886.06;5412016;23;20473;-79
2021/07/16 08:19:42;;;;;;;5.82;3.92;;;;;;;19.38;72.61;96877.44;4941627;28;20028;-79
2021/07/16 08:22:09;;;;;;;4.50;3.47;;;;;;;19.48;72.36;96877.66;4941274;29;20048;-77
2021/07/16 08:24:37;;;;;;;4.30;3.08;;;;;;;19.56;71.64;96880.75;4938092;29;20063;-78
2021/07/16 08:33:51;;;;;;;3.92;3.60;;;;;;;19.74;70.96;96879.03;5153715;23;20142;-80
2021/07/16 08:36:31;;;;;;;3.72;3.35;;;;;;;19.82;71.79;96881.31;4979106;28;20047;-79
2021/07/16 08:54:48;;;;;;;2.97;2.63;;;;;;;20.39;68.91;96888.50;5781547;23;20054;-79
2021/07/16 09:00:47;;;;;;;2.58;2.42;;;;;;;20.41;66.42;96886.41;5846537;23;20057;-80
2021/07/16 09:11:27;;;;;;;2.15;1.95;;;;;;;20.46;66.11;96896.31;5769923;23;20057;-79
2021/07/16 09:28:30;;;;;;;2.30;2.10;;;;;;;20.71;65.27;96901.28;5143250;23;20599;-79
2021/07/16 09:31:47;;;;;;;2.00;1.90;;;;;;;20.72;64.89;96908.19;4972933;28;20055;-78
2021/07/16 10:12:02;;;;;;;1.48;0.93;;;;;;;21.94;61.28;96897.81;5254699;23;20066;-78
2021/07/16 10:20:13;;;;;;;2.25;1.02;;;;;;;22.13;59.47;96896.47;5798517;23;20051;-79
2021/07/16 10:22:43;;;;;;;0.70;0.63;;;;;;;22.14;56.31;96891.94;4968521;29;20055;-79
2021/07/16 10:25:42;;;;;;;1.70;0.50;;;;;;;22.18;58.02;96899.16;4963279;29;20051;-78
2021/07/16 10:28:35;;;;;;;4.90;0.73;;;;;;;22.31;58.00;96887.38;4959339;29;20047;-72
2021/07/16 10:31:03;;;;;;;1.10;0.70;;;;;;;22.36;58.13;96894.59;4955249;29;20054;-70
2021/07/16 10:33:36;;;;;;;2.20;0.65;;;;;;;22.46;56.89;96888.59;4954516;29;20078;-72
2021/07/16 10:36:03;;;;;;;2.35;0.50;;;;;;;22.54;56.25;96896.94;4955101;29;20051;-73
2021/07/16 10:58:27;;;;;;;0.70;0.70;;;;;;;22.93;56.05;96896.72;6076480;23;20093;-77
2021/07/16 12:03:07;;;;;;;0.30;0.30;;;;;;;23.36;53.51;96884.31;6121042;23;20021;-79
2021/07/16 12:05:46;;;;;;;3.30;0.40;;;;;;;23.44;52.82;96880.38;6141663;23;20022;-81
2021/07/16 12:08:17;;;;;;;1.00;0.70;;;;;;;23.45;52.08;96888.09;6141530;23;20022;-79
2021/07/16 12:10:45;;;;;;;1.90;1.40;;;;;;;23.41;51.89;96876.34;6140515;23;20057;-81
2021/07/16 12:13:12;;;;;;;1.33;0.85;;;;;;;23.39;51.87;96878.47;6138970;23;20025;-78
2021/07/16 12:15:40;;;;;;;0.40;0.40;;;;;;;23.40;52.21;96881.94;6137912;23;20028;-81
2021/07/16 12:18:09;;;;;;;0.95;0.30;;;;;;;23.39;51.11;96883.78;6140730;23;20029;-80
2021/07/16 12:20:39;;;;;;;1.05;0.25;;;;;;;23.42;51.60;96877.16;6142793;23;20032;-79
2021/07/16 12:23:08;;;;;;;0.22;0.22;;;;;;;23.47;50.60;96876.41;6137343;23;20022;-78
2021/07/16 12:25:37;;;;;;;4.07;0.32;;;;;;;23.52;50.95;96873.75;6132390;23;20022;-78
2021/07/16 12:28:10;;;;;;;0.38;0.30;;;;;;;23.54;48.72;96871.63;6133609;23;20478;-78
2021/07/16 12:30:39;;;;;;;0.30;0.30;;;;;;;23.56;49.06;96866.84;6133462;23;20094;-80
2021/07/16 12:33:08;;;;;;;2.15;0.30;;;;;;;23.60;49.98;96867.94;6133079;23;20034;-80
2021/07/16 12:35:41;;;;;;;2.55;0.38;;;;;;;23.60;48.38;96875.94;6136739;23;20022;-80
2021/07/16 12:38:13;;;;;;;0.55;0.40;;;;;;;23.59;48.69;96864.50;6141586;23;20100;-79
2021/07/16 12:40:43;;;;;;;0.15;0.15;;;;;;;23.58;48.53;96873.53;6142733;23;20101;-80
2021/07/16 12:43:12;;;;;;;0.20;0.20;;;;;;;23.59;48.76;96869.00;6141126;23;20073;-80
2021/07/16 12:45:42;;;;;;;2.58;0.52;;;;;;;23.61;49.25;96869.53;6141153;23;20026;-79
2021/07/16 12:48:27;;;;;;;0.30;0.30;;;;;;;23.64;48.65;96866.38;6141981;23;20033;-81
2021/07/16 12:51:09;;;;;;;1.13;0.28;;;;;;;23.65;49.11;96873.28;6140809;23;20022;-80
2021/07/16 12:53:38;;;;;;;1.10;0.50;;;;;;;23.66;50.10;96882.91;6139400;23;20090;-80
2021/07/16 12:56:19;;;;;;;1.33;0.40;;;;;;;23.67;51.04;96881.81;6140104;23;20333;-79
2021/07/16 12:58:47;;;;;;;0.30;0.30;;;;;;;23.69;51.08;96879.69;6142442;23;20022;-79
2021/07/16 13:01:24;;;;;;;0.28;0.28;;;;;;;23.73;50.30;96883.47;6140584;23;20037;-79
2021/07/16 13:03:53;;;;;;;1.27;0.20;;;;;;;23.72;50.46;96884.50;6139057;23;20022;-80
2021/07/16 13:06:28;;;;;;;0.32;0.30;;;;;;;23.69;49.89;96879.69;6140569;23;20022;-79
2021/07/16 13:09:19;;;;;;;1.65;0.40;;;;;;;23.68;50.25;96887.94;6141674;23;20028;-79
2021/07/16 13:12:01;;;;;;;1.92;0.20;;;;;;;23.66;49.27;96885.56;6134962;23;20032;-81
2021/07/16 13:14:32;;;;;;;1.58;0.25;;;;;;;23.63;49.22;96881.53;6140364;23;20026;-80
2021/07/16 13:17:24;;;;;;;1.73;0.20;;;;;;;23.63;50.01;96886.06;6141065;23;20034;-80
2021/07/16 13:19:54;;;;;;;0.20;0.20;;;;;;;23.64;49.80;96893.00;6135325;23;20022;-78
2021/07/16 13:22:25;;;;;;;1.38;0.30;;;;;;;23.63;50.50;96891.38;6142338;23;20026;-80
2021/07/16 13:24:53;;;;;;;1.60;0.70;;;;;;;23.62;50.92;96895.13;6142264;23;20070;-79
2021/07/16 13:27:21;;;;;;;0.80;0.77;;;;;;;23.59;52.24;96896.44;6142334;23;20032;-78
2021/07/16 13:29:50;;;;;;;1.15;0.80;;;;;;;23.57;51.70;96898.56;6141490;23;20491;-79
2021/07/16 13:32:18;;;;;;;0.60;0.60;;;;;;;23.56;52.21;96896.94;6141168;23;20018;-77
2021/07/16 13:34:46;;;;;;;1.33;0.95;;;;;;;23.56;52.59;96899.59;6141001;23;20022;-79
2021/07/16 13:37:14;;;;;;;0.75;0.70;;;;;;;23.55;52.99;96905.19;6141570;23;20112;-80
2021/07/16 13:39:43;;;;;;;0.77;0.70;;;;;;;23.54;52.78;96904.38;6142583;23;20025;-81
2021/07/16 13:42:10;;;;;;;3.72;1.00;;;;;;;23.52;52.61;96906.50;6142247;23;20026;-79
2021/07/16 13:44:40;;;;;;;2.45;1.00;;;;;;;23.51;52.97;96904.91;6141310;23;20028;-79
2021/07/16 13:47:07;;;;;;;1.15;0.73;;;;;;;23.51;53.20;96906.78;6140848;23;20032;-80
2021/07/16 13:49:35;;;;;;;0.82;0.80;;;;;;;23.50;53.69;96907.81;6141043;23;20021;-78
2021/07/16 13:52:03;;;;;;;0.90;0.60;;;;;;;23.49;53.68;96912.34;6140153;23;20336;-79
2021/07/16 13:54:31;;;;;;;1.17;0.88;;;;;;;23.45;53.06;96908.59;6140430;23;20101;-78
2021/07/16 13:57:00;;;;;;;0.73;0.73;;;;;;;23.43;53.43;96902.72;6141967;23;20026;-78
2021/07/16 13:59:31;;;;;;;0.60;0.60;;;;;;;23.40;53.90;96909.38;6140558;23;20018;-77
2021/07/16 14:01:59;;;;;;;1.05;0.60;;;;;;;23.40;54.76;96917.34;6140628;23;20021;-78
2021/07/16 14:04:28;;;;;;;0.85;0.80;;;;;;;23.43;54.79;96911.50;6140339;23;20025;-79
2021/07/16 14:06:55;;;;;;;0.70;0.70;;;;;;;23.48;54.60;96921.38;6138891;23;20026;-78
2021/07/16 14:09:23;;;;;;;1.17;0.70;;;;;;;23.53;54.49;96915.31;6141689;23;20105;-80
2021/07/16 14:11:52;;;;;;;1.08;0.80;;;;;;;23.58;54.51;96915.34;6139624;23;20454;-80
2021/07/16 14:14:22;;;;;;;1.00;1.00;;;;;;;23.62;54.51;96916.44;6139345;23;20052;-78
2021/07/16 14:16:50;;;;;;;2.15;0.90;;;;;;;23.65;53.81;96905.25;6140978;23;20026;-78
2021/07/16 14:19:18;;;;;;;2.15;0.68;;;;;;;23.66;53.97;96904.19;6140615;23;20028;-78
2021/07/16 14:21:45;;;;;;;0.60;0.60;;;;;;;23.68;53.65;96907.41;6138044;23;20028;-79
2021/07/16 14:24:13;;;;;;;0.50;0.50;;;;;;;23.66;53.14;96901.53;6139648;23;20450;-78
2021/07/16 14:26:40;;;;;;;0.90;0.90;;;;;;;23.67;53.21;96905.00;6141149;23;20014;-81
2021/07/16 14:29:08;;;;;;;1.10;0.50;;;;;;;23.65;52.88;96910.56;6139594;23;20101;-80
2021/07/16 14:31:37;;;;;;;0.82;0.75;;;;;;;23.64;51.77;96898.34;6140106;23;20040;-78
2021/07/16 14:34:05;;;;;;;1.55;0.70;;;;;;;23.67;52.64;96902.34;6137714;23;20022;-79
2021/07/16 14:36:32;;;;;;;1.05;0.60;;;;;;;23.71;52.80;96893.56;6138562;23;20022;-78
2021/07/16 14:39:00;;;;;;;0.70;0.70;;;;;;;23.74;51.53;96903.69;6139473;23;20030;-81
2021/07/16 14:41:28;;;;;;;0.85;0.85;;;;;;;23.78;52.00;96896.81;6139944;23;20022;-82
2021/07/16 14:43:55;;;;;;;0.63;0.50;;;;;;;23.80;51.67;96913.34;6138806;23;20101;-80
2021/07/16 14:46:23;;;;;;;0.40;0.40;;;;;;;23.81;50.71;96898.97;6136030;23;20073;-79
2021/07/16 14:48:53;;;;;;;1.67;0.55;;;;;;;23.79;50.21;96906.44;6135275;23;20058;-80
2021/07/16 14:51:21;;;;;;;1.52;0.60;;;;;;;23.78;49.39;96910.13;6134415;23;20018;-80
2021/07/16 14:53:48;;;;;;;0.52;0.52;;;;;;;23.78;49.55;96904.81;6136654;23;20077;-81
2021/07/16 14:56:16;;;;;;;0.40;0.35;;;;;;;23.78;50.86;96904.00;6142650;23;20022;-79
2021/07/16 14:58:44;;;;;;;0.82;0.60;;;;;;;23.80;50.91;96897.38;6141083;23;20102;-79